createdAt,value
2023-04-28T00:01:21.851Z,99538.06
2023-04-28T00:06:24.671Z,99532.91
2023-04-28T00:11:27.473Z,99542.31
2023-04-28T00:16:30.544Z,99530.34
2023-04-28T00:21:51.593Z,99528.66
2023-04-28T00:27:13.090Z,99513.28
2023-04-28T00:32:15.850Z,99499.63
2023-04-28T00:37:18.682Z,99491.94
2023-04-28T00:42:21.824Z,99493.63
2023-04-28T00:47:24.755Z,99498.72
2023-04-28T00:52:28.608Z,99487.50
2023-04-28T00:57:31.875Z,99479.72
2023-04-28T01:02:37.127Z,99474.53
2023-04-28T01:07:40.442Z,99468.56
2023-04-28T01:12:44.255Z,99463.41
2023-04-28T01:17:48.141Z,99455.63
2023-04-28T01:22:51.085Z,99454.72
2023-04-28T01:27:54.600Z,99458.88
2023-04-28T01:32:57.675Z,99459.69
2023-04-28T01:38:01.715Z,99470.00
2023-04-28T01:43:04.653Z,99454.75
2023-04-28T01:48:11.038Z,99442.69
2023-04-28T01:53:15.112Z,99435.53
2023-04-28T01:58:19.838Z,99434.53
2023-04-28T02:03:25.696Z,99440.28
2023-04-28T02:08:37.481Z,99436.50
2023-04-28T02:13:48.503Z,99466.44
2023-04-28T02:19:12.386Z,99430.50
2023-04-28T02:24:15.687Z,99406.88
2023-04-28T02:29:18.706Z,99418.13
2023-04-28T02:34:21.904Z,99380.25
2023-04-28T02:39:27.391Z,99360.38
2023-04-28T02:44:32.696Z,99366.28
2023-04-28T02:49:35.868Z,99384.47
2023-04-28T02:54:39.214Z,99401.19
2023-04-28T02:59:44.988Z,99369.78
2023-04-28T03:04:51.132Z,99361.00
2023-04-28T03:10:11.341Z,99364.59
2023-04-28T03:15:20.675Z,99329.94
2023-04-28T03:20:23.941Z,99331.84
2023-04-28T03:25:26.828Z,99361.72
2023-04-28T03:30:30.012Z,99321.88
2023-04-28T03:35:34.210Z,99316.97
2023-04-28T03:40:38.400Z,99281.72
2023-04-28T03:46:05.557Z,99303.66
2023-04-28T03:51:09.212Z,99311.56
2023-04-28T03:56:12.562Z,99321.63
2023-04-28T04:01:15.794Z,99344.13
2023-04-28T04:06:19.254Z,99353.84
2023-04-28T04:11:22.248Z,99320.59
2023-04-28T04:16:25.752Z,99329.25
2023-04-28T04:21:32.340Z,99311.16
2023-04-28T04:26:35.553Z,99294.56
2023-04-28T04:31:48.344Z,99290.59
2023-04-28T04:36:51.142Z,99297.06
2023-04-28T04:41:54.183Z,99298.00
2023-04-28T04:47:13.287Z,99296.16
2023-04-28T04:52:16.821Z,99300.34
2023-04-28T04:57:21.465Z,99327.81
2023-04-28T05:02:46.721Z,99322.06
2023-04-28T05:07:52.467Z,99313.06
2023-04-28T05:12:57.005Z,99309.06
2023-04-28T05:18:00.512Z,99295.09
2023-04-28T05:23:04.310Z,99322.50
2023-04-28T05:28:12.622Z,99307.03
2023-04-28T05:33:17.165Z,99312.34
2023-04-28T05:38:21.560Z,99306.47
2023-04-28T05:43:26.720Z,99313.81
2023-04-28T05:48:30.026Z,99306.28
2023-04-28T05:53:33.084Z,99316.34
2023-04-28T05:58:36.313Z,99316.69
2023-04-28T06:03:43.653Z,99317.41
2023-04-28T06:08:47.207Z,99323.22
2023-04-28T06:13:51.450Z,99333.59
2023-04-28T06:18:55.109Z,99337.75
2023-04-28T06:23:58.004Z,99312.47
2023-04-28T06:29:00.988Z,99294.78
2023-04-28T06:34:05.631Z,99294.50
2023-04-28T06:39:08.757Z,99302.31
2023-04-28T06:44:12.249Z,99285.19
2023-04-28T06:49:15.325Z,99277.63
2023-04-28T06:54:18.814Z,99266.63
2023-04-28T06:59:22.276Z,99239.88
2023-04-28T07:04:25.306Z,99235.41
2023-04-28T07:09:29.060Z,99235.44
2023-04-28T07:14:33.207Z,99232.19
2023-04-28T07:19:36.098Z,99237.09
2023-04-28T07:29:41.370Z,99216.84
2023-04-28T07:34:44.300Z,99211.41
2023-04-28T07:39:47.714Z,99204.03
2023-04-28T07:44:50.775Z,99194.72
2023-04-28T07:49:53.672Z,99201.66
2023-04-28T07:54:56.645Z,99188.16
2023-04-28T07:59:59.570Z,99197.44
2023-04-28T08:05:02.888Z,99187.81
2023-04-28T08:10:06.999Z,99167.25
2023-04-28T08:15:10.702Z,99168.63
2023-04-28T08:20:15.896Z,99176.22
2023-04-28T08:25:19.017Z,99164.44
2023-04-28T08:30:22.973Z,99138.19
2023-04-28T08:35:26.744Z,99138.59
2023-04-28T08:40:31.831Z,99144.63
2023-04-28T08:45:35.077Z,99136.84
2023-04-28T08:50:39.953Z,99113.00
2023-04-28T08:55:43.106Z,99128.44
2023-04-28T09:00:46.028Z,99124.50
2023-04-28T09:05:49.436Z,99133.09
2023-04-28T09:11:09.798Z,99125.00
2023-04-28T09:16:12.757Z,99134.63
2023-04-28T09:21:17.562Z,99136.25
2023-04-28T09:26:20.381Z,99141.06
2023-04-28T09:31:28.825Z,99125.50
2023-04-28T09:36:31.843Z,99128.69
2023-04-28T09:41:45.820Z,99134.63
2023-04-28T09:46:48.967Z,99128.72
2023-04-28T09:51:52.026Z,99127.75
2023-04-28T09:56:55.556Z,99116.22
2023-04-28T10:01:58.629Z,99113.75
2023-04-28T10:07:02.023Z,99118.84
2023-04-28T10:12:05.672Z,99116.03
2023-04-28T10:17:08.819Z,99113.06
2023-04-28T10:22:17.317Z,99114.50
2023-04-28T10:27:20.390Z,99113.66
2023-04-28T10:32:26.786Z,99119.47
2023-04-28T10:38:15.184Z,99119.72
2023-04-28T10:43:30.034Z,99115.53
2023-04-28T10:48:34.435Z,99111.47
2023-04-28T10:53:47.079Z,99113.81
2023-04-28T10:58:52.612Z,99109.03
2023-04-28T11:04:01.230Z,99105.41
2023-04-28T11:09:14.368Z,99107.44
2023-04-28T11:14:18.610Z,99097.91
2023-04-28T11:19:26.456Z,99090.41
2023-04-28T11:24:30.600Z,99083.31
2023-04-28T11:29:51.890Z,99101.66
2023-04-28T11:34:55.328Z,99090.47
2023-04-28T11:39:58.105Z,99070.72
2023-04-28T11:45:01.211Z,99059.75
2023-04-28T11:50:04.807Z,99049.38
2023-04-28T11:55:07.955Z,99044.31
2023-04-28T12:00:15.403Z,99048.28
2023-04-28T12:05:18.377Z,99040.88
2023-04-28T12:10:22.387Z,99052.44
2023-04-28T12:15:40.085Z,99036.94
2023-04-28T12:20:43.911Z,99032.88
2023-04-28T12:25:48.400Z,99038.06
2023-04-28T12:30:51.500Z,99033.13
2023-04-28T12:35:55.532Z,99030.16
2023-04-28T12:40:59.045Z,99020.09
2023-04-28T12:46:01.930Z,99022.56
2023-04-28T12:51:04.786Z,99015.44
2023-04-28T12:56:07.689Z,99014.09
2023-04-28T13:01:10.528Z,99002.53
2023-04-28T13:06:13.497Z,99004.56
2023-04-28T13:11:22.859Z,98999.50
2023-04-28T13:16:29.743Z,98997.81
2023-04-28T13:21:32.464Z,98972.69
2023-04-28T13:26:35.571Z,98993.75
2023-04-28T13:31:38.721Z,98987.72
2023-04-28T13:36:41.840Z,98972.44
2023-04-28T13:41:44.665Z,98983.31
2023-04-28T13:46:47.640Z,98966.03
2023-04-28T13:51:50.656Z,98988.91
2023-04-28T13:56:53.506Z,98989.41
2023-04-28T14:01:56.416Z,98971.84
2023-04-28T14:06:59.257Z,98968.47
2023-04-28T14:12:02.659Z,98963.00
2023-04-28T14:17:05.846Z,98962.38
2023-04-28T14:22:08.738Z,98974.47
2023-04-28T14:27:11.784Z,98973.28
2023-04-28T14:32:21.455Z,98968.88
2023-04-28T14:37:24.349Z,98973.94
2023-04-28T14:42:31.769Z,98987.78
2023-04-28T14:47:35.027Z,98983.97
2023-04-28T14:52:38.649Z,98993.84
2023-04-28T14:57:42.551Z,98999.41
2023-04-28T15:02:45.489Z,98993.25
2023-04-28T15:07:48.552Z,99017.78
2023-04-28T15:12:51.560Z,99014.53
2023-04-28T15:18:00.986Z,99013.31
2023-04-28T15:23:04.020Z,99016.56
2023-04-28T15:28:07.782Z,99003.88
2023-04-28T15:33:17.521Z,99002.69
2023-04-28T15:38:20.636Z,99015.25
2023-04-28T15:43:23.567Z,99025.31
2023-04-28T15:48:27.153Z,99029.22
2023-04-28T15:53:30.195Z,99020.16
2023-04-28T15:58:33.010Z,99021.34
2023-04-28T16:03:36.163Z,99036.16
2023-04-28T16:08:39.847Z,99039.25
2023-04-28T16:13:42.651Z,99065.97
2023-04-28T16:18:45.397Z,99093.09
2023-04-28T16:23:51.558Z,99140.19
2023-04-28T16:28:54.458Z,99159.44
2023-04-28T16:33:57.233Z,99177.97
2023-04-28T16:39:00.069Z,99177.97
2023-04-28T16:44:02.825Z,99183.75
2023-04-28T16:49:05.901Z,99201.50
2023-04-28T16:54:08.680Z,99201.88
2023-04-28T16:59:11.460Z,99214.13
2023-04-28T17:04:14.950Z,99213.56
2023-04-28T17:09:19.094Z,99226.56
2023-04-28T17:14:22.041Z,99233.56
2023-04-28T17:19:25.153Z,99236.19
2023-04-28T17:24:28.044Z,99254.16
2023-04-28T17:29:31.506Z,99260.94
2023-04-28T17:34:34.357Z,99275.53
2023-04-28T17:39:37.096Z,99273.19
2023-04-28T17:44:39.872Z,99338.69
2023-04-28T17:49:42.846Z,99320.03
2023-04-28T17:54:45.677Z,99332.09
2023-04-28T17:59:51.697Z,99329.75
2023-04-28T18:04:55.618Z,99358.84
2023-04-28T18:09:59.176Z,99417.66
2023-04-28T18:15:03.002Z,99433.28
2023-04-28T18:20:08.653Z,99469.41
2023-04-28T18:25:11.905Z,99515.56
2023-04-28T18:30:16.164Z,99518.28
2023-04-28T18:35:19.262Z,99560.06
2023-04-28T18:40:22.721Z,99577.47
2023-04-28T18:45:31.656Z,99587.81
2023-04-28T18:50:34.864Z,99599.38
2023-04-28T18:55:37.741Z,99616.69
2023-04-28T19:00:40.787Z,99626.50
2023-04-28T19:05:44.111Z,99623.78
2023-04-28T19:10:52.862Z,99567.88
2023-04-28T19:15:56.604Z,99584.13
2023-04-28T19:21:03.858Z,99588.47
2023-04-28T19:26:07.072Z,99612.09
2023-04-28T19:31:09.988Z,99570.25
2023-04-28T19:36:12.931Z,99584.56
2023-04-28T19:41:15.701Z,99614.09
2023-04-28T19:46:18.654Z,99603.84
2023-04-28T19:51:21.817Z,99614.72
2023-04-28T19:56:25.327Z,99606.03
2023-04-28T20:01:28.178Z,99618.56
2023-04-28T20:06:31.256Z,99626.16
2023-04-28T20:11:35.594Z,99642.09
2023-04-28T20:16:38.417Z,99637.06
2023-04-28T20:21:42.412Z,99637.81
2023-04-28T20:26:45.224Z,99637.72
2023-04-28T20:31:48.235Z,99630.84
2023-04-28T20:36:53.265Z,99652.94
2023-04-28T20:41:56.109Z,99649.31
2023-04-28T20:46:59.608Z,99659.06
2023-04-28T20:52:05.222Z,99680.16
2023-04-28T20:57:09.634Z,99687.63
2023-04-28T21:02:12.594Z,99687.56
2023-04-28T21:07:15.431Z,99689.97
2023-04-28T21:12:18.310Z,99694.81
2023-04-28T21:17:21.174Z,99698.78
2023-04-28T21:22:25.390Z,99699.16
2023-04-28T21:27:28.153Z,99699.25
2023-04-28T21:32:31.264Z,99706.06
2023-04-28T21:37:34.210Z,99699.13
2023-04-28T21:42:37.046Z,99703.31
2023-04-28T21:47:42.759Z,99710.34
2023-04-28T21:52:46.649Z,99714.06
2023-04-28T21:57:49.456Z,99716.25
2023-04-28T22:02:53.135Z,99713.59
2023-04-28T22:07:56.198Z,99723.97
2023-04-28T22:12:58.977Z,99729.09
2023-04-28T22:18:01.948Z,99735.66
2023-04-28T22:23:05.057Z,99740.56
2023-04-28T22:28:07.719Z,99741.09
2023-04-28T22:33:10.774Z,99752.00
2023-04-28T22:38:13.509Z,99759.84
2023-04-28T22:43:16.397Z,99753.59
2023-04-28T22:48:19.427Z,99767.44
2023-04-28T22:53:22.201Z,99770.84
2023-04-28T22:58:25.195Z,99773.78
2023-04-28T23:03:27.958Z,99773.50
2023-04-28T23:08:30.991Z,99775.78
2023-04-28T23:13:33.712Z,99784.38
2023-04-28T23:18:36.545Z,99790.91
2023-04-28T23:23:39.273Z,99793.13
2023-04-28T23:28:42.635Z,99798.16
2023-04-28T23:33:45.650Z,99808.03
2023-04-28T23:38:48.400Z,99808.47
2023-04-28T23:43:53.063Z,99810.56
2023-04-28T23:48:56.070Z,99794.25
2023-04-28T23:53:59.552Z,99798.69
2023-04-28T23:59:02.342Z,99804.03
